Time;durP1;ratioP1;P1;durP2;ratioP2;P2;SDS_P1;SDS_P2;PMS_P1;PMS_P2;Temp;Humidity;BMP_temperature;BMP_pressure;BME280_temperature;BME280_humidity;BME280_pressure;Samples;Min_cycle;Max_cycle;Signal;HPM_P1;HPM_P2
2023/08/15 00:01:12;;;;;;;8.43;4.90;;;;;;;20.53;100.00;100651.09;5034485;28;20387;-89
2023/08/15 00:03:39;;;;;;;8.15;4.90;;;;;;;20.49;100.00;100647.75;5045420;28;20056;-88
2023/08/15 00:06:06;;;;;;;7.82;5.30;;;;;;;20.49;100.00;100650.41;5041106;28;20150;-85
2023/08/15 00:08:35;;;;;;;4.82;4.38;;;;;;;20.46;100.00;100644.38;5043230;28;20045;-86
2023/08/15 00:11:02;;;;;;;5.82;5.03;;;;;;;20.41;100.00;100639.28;5044030;28;20545;-85
2023/08/15 00:13:29;;;;;;;7.13;4.82;;;;;;;20.37;100.00;100635.06;5042821;28;20037;-93
2023/08/15 00:15:56;;;;;;;10.00;4.93;;;;;;;20.35;100.00;100638.72;5042924;28;20042;-89
2023/08/15 00:18:22;;;;;;;6.38;4.55;;;;;;;20.34;100.00;100640.53;5055931;28;20040;-90
2023/08/15 00:20:49;;;;;;;8.10;3.88;;;;;;;20.31;100.00;100638.00;5052566;28;20128;-91
2023/08/15 00:23:16;;;;;;;4.80;4.30;;;;;;;20.29;100.00;100642.56;5044001;28;20033;-86
2023/08/15 00:25:43;;;;;;;5.30;3.78;;;;;;;20.30;100.00;100641.63;5036154;28;20048;-90
2023/08/15 00:28:10;;;;;;;5.93;3.58;;;;;;;20.26;100.00;100638.25;5026145;28;20061;-87
2023/08/15 00:30:42;;;;;;;5.90;4.28;;;;;;;20.25;100.00;100639.19;5028093;28;20049;-84
2023/08/15 00:33:10;;;;;;;4.03;3.72;;;;;;;20.21;100.00;100645.59;5026694;28;20048;-86
2023/08/15 00:35:47;;;;;;;6.70;4.63;;;;;;;20.18;100.00;100643.09;5041111;28;20057;-92
2023/08/15 00:38:14;;;;;;;4.88;4.18;;;;;;;20.16;100.00;100631.69;5020820;28;20053;-93
2023/08/15 00:40:41;;;;;;;7.28;4.55;;;;;;;20.14;100.00;100634.41;5034022;28;20052;-86
2023/08/15 00:43:10;;;;;;;7.60;4.18;;;;;;;20.11;100.00;100628.38;5057804;28;20053;-90
2023/08/15 00:45:41;;;;;;;6.80;4.22;;;;;;;20.09;100.00;100630.25;5078288;28;20049;-90
2023/08/15 00:48:10;;;;;;;6.22;4.05;;;;;;;20.08;100.00;100625.88;5055127;28;20053;-90
2023/08/15 00:50:39;;;;;;;4.75;4.20;;;;;;;20.06;100.00;100633.91;5057216;28;20045;-85
2023/08/15 00:53:06;;;;;;;8.35;4.70;;;;;;;20.07;100.00;100640.09;5054390;28;20465;-85
2023/08/15 00:55:34;;;;;;;6.47;4.18;;;;;;;20.07;100.00;100634.78;5072253;28;20041;-87
2023/08/15 00:58:05;;;;;;;3.45;3.25;;;;;;;20.08;100.00;100637.38;5041296;28;20040;-84
2023/08/15 01:00:38;;;;;;;4.40;3.90;;;;;;;20.06;100.00;100635.72;5026430;28;20151;-86
2023/08/15 01:03:05;;;;;;;4.45;3.55;;;;;;;20.02;100.00;100627.03;5041149;28;20037;-87
2023/08/15 01:05:33;;;;;;;6.40;4.47;;;;;;;19.99;100.00;100627.19;5050997;28;20048;-88
2023/08/15 01:08:00;;;;;;;6.30;4.55;;;;;;;19.99;100.00;100627.19;5035577;28;20045;-85
2023/08/15 01:10:41;;;;;;;6.45;3.65;;;;;;;19.95;100.00;100621.16;5042853;28;20069;-92
2023/08/15 01:13:40;;;;;;;6.68;4.15;;;;;;;19.91;100.00;100613.44;5066294;28;20049;-87
2023/08/15 01:16:28;;;;;;;4.30;3.90;;;;;;;19.88;100.00;100621.53;5003960;28;20041;-90
2023/08/15 01:19:44;;;;;;;12.15;5.28;;;;;;;19.83;100.00;100619.97;5033985;28;20389;-86
2023/08/15 01:22:33;;;;;;;5.00;4.40;;;;;;;19.80;100.00;100629.84;5030434;28;20056;-85
2023/08/15 01:25:00;;;;;;;6.28;3.78;;;;;;;19.77;100.00;100622.03;5041197;28;20072;-86
2023/08/15 01:27:27;;;;;;;5.80;4.60;;;;;;;19.74;100.00;100627.50;5033307;28;20045;-88
2023/08/15 01:29:55;;;;;;;4.78;4.35;;;;;;;19.72;100.00;100616.06;5034556;28;20045;-88
2023/08/15 01:32:59;;;;;;;5.72;4.40;;;;;;;19.68;100.00;100615.34;5064379;28;20048;-93
2023/08/15 01:35:39;;;;;;;7.82;4.93;;;;;;;19.67;100.00;100611.84;5059625;28;20064;-90
2023/08/15 01:38:18;;;;;;;6.35;4.28;;;;;;;19.65;100.00;100608.38;5064744;28;20052;-88
2023/08/15 01:40:50;;;;;;;8.07;4.20;;;;;;;19.62;100.00;100613.88;5070005;28;20061;-88
2023/08/15 01:43:18;;;;;;;5.65;4.70;;;;;;;19.61;100.00;100620.09;5085775;28;20041;-96
2023/08/15 01:45:45;;;;;;;7.32;4.75;;;;;;;19.59;100.00;100616.63;5055600;28;20048;-86
2023/08/15 01:48:11;;;;;;;5.75;4.40;;;;;;;19.57;100.00;100621.19;5045578;28;20108;-84
2023/08/15 01:50:38;;;;;;;6.30;4.95;;;;;;;19.56;100.00;100615.94;5060028;28;20037;-85
2023/08/15 01:53:05;;;;;;;9.90;5.00;;;;;;;19.58;100.00;100614.06;5052788;28;20090;-85
2023/08/15 01:55:32;;;;;;;8.15;4.60;;;;;;;19.58;100.00;100614.94;5052243;28;20048;-86
2023/08/15 01:57:58;;;;;;;5.78;4.90;;;;;;;19.59;100.00;100615.78;5052300;28;20044;-86
2023/08/15 02:00:25;;;;;;;4.78;4.25;;;;;;;19.58;100.00;100614.06;5029953;28;20088;-90
2023/08/15 02:02:51;;;;;;;8.07;4.50;;;;;;;19.54;100.00;100616.00;5045007;28;20131;-86
2023/08/15 02:05:18;;;;;;;6.68;4.93;;;;;;;19.51;100.00;100614.34;5049475;28;20410;-86
2023/08/15 02:07:45;;;;;;;6.03;4.28;;;;;;;19.50;100.00;100612.66;5031883;28;20122;-86
2023/08/15 02:10:11;;;;;;;7.18;5.20;;;;;;;19.47;100.00;100610.13;5062395;28;20045;-86
2023/08/15 02:12:38;;;;;;;4.63;4.22;;;;;;;19.47;100.00;100615.44;5043814;28;20076;-87
2023/08/15 02:15:05;;;;;;;8.95;5.28;;;;;;;19.43;100.00;100615.66;5047200;28;20041;-86
2023/08/15 02:17:32;;;;;;;5.63;4.40;;;;;;;19.41;100.00;100613.09;5050211;28;20076;-87
2023/08/15 02:19:58;;;;;;;8.98;4.93;;;;;;;19.39;100.00;100617.59;5048928;28;20049;-86
2023/08/15 02:22:32;;;;;;;6.45;4.55;;;;;;;19.40;100.00;100611.34;5046433;28;20049;-86
2023/08/15 02:24:59;;;;;;;6.38;4.70;;;;;;;19.39;100.00;100606.13;5042546;28;20045;-86
2023/08/15 02:27:26;;;;;;;8.65;5.15;;;;;;;19.39;100.00;100606.13;5044746;28;20055;-88
2023/08/15 02:29:53;;;;;;;7.53;4.57;;;;;;;19.36;100.00;100607.13;5066021;28;20056;-90
2023/08/15 02:32:20;;;;;;;6.25;4.50;;;;;;;19.34;100.00;100601.88;5026415;28;20040;-87
2023/08/15 02:34:48;;;;;;;4.75;4.32;;;;;;;19.32;100.00;100609.06;5048260;28;20112;-87
2023/08/15 02:37:15;;;;;;;7.28;4.82;;;;;;;19.30;100.00;100604.75;5048904;28;20063;-89
2023/08/15 02:39:42;;;;;;;6.32;5.28;;;;;;;19.30;100.00;100610.06;5033007;28;20040;-85
2023/08/15 02:42:09;;;;;;;4.10;3.78;;;;;;;19.28;100.00;100606.59;5047149;28;20110;-85
2023/08/15 02:44:35;;;;;;;7.78;3.70;;;;;;;19.28;100.00;100601.28;5048427;28;20045;-85
2023/08/15 02:47:02;;;;;;;8.57;4.78;;;;;;;19.28;100.00;100607.47;5044773;28;20045;-86
2023/08/15 02:49:29;;;;;;;6.43;4.78;;;;;;;19.27;100.00;100600.44;5046350;28;20154;-86
2023/08/15 02:51:56;;;;;;;6.40;5.30;;;;;;;19.27;100.00;100608.41;5049662;28;20490;-89
2023/08/15 02:54:24;;;;;;;6.05;5.32;;;;;;;19.26;100.00;100604.03;5029437;28;20037;-91
2023/08/15 02:56:51;;;;;;;8.73;4.30;;;;;;;19.25;100.00;100602.28;5044372;28;20044;-90
2023/08/15 02:59:19;;;;;;;7.35;4.90;;;;;;;19.23;100.00;100600.63;5062770;28;20048;-89
2023/08/15 03:01:50;;;;;;;7.88;4.75;;;;;;;19.19;100.00;100594.63;5062823;28;20051;-93
2023/08/15 03:04:17;;;;;;;7.57;5.10;;;;;;;19.20;100.00;100598.13;5086789;28;20037;-91
2023/08/15 03:06:44;;;;;;;6.60;5.10;;;;;;;19.17;100.00;100602.66;5053266;28;20080;-91
2023/08/15 03:09:11;;;;;;;6.97;4.63;;;;;;;19.15;100.00;100603.63;5043620;28;20045;-88
2023/08/15 03:11:37;;;;;;;12.02;5.43;;;;;;;19.14;100.00;100607.25;5047905;28;20041;-88
2023/08/15 03:14:04;;;;;;;10.68;5.30;;;;;;;19.11;100.00;100605.59;5034271;28;20052;-86
2023/08/15 03:16:31;;;;;;;6.05;4.90;;;;;;;19.09;100.00;100611.91;5050160;28;20094;-86
2023/08/15 03:18:58;;;;;;;7.00;4.63;;;;;;;19.07;100.00;100613.75;5066497;28;20265;-87
2023/08/15 03:21:28;;;;;;;9.63;4.50;;;;;;;19.05;100.00;100613.84;5052059;28;20041;-87
2023/08/15 03:23:57;;;;;;;7.00;5.68;;;;;;;19.03;100.00;100606.88;5046528;28;20071;-86
2023/08/15 03:26:25;;;;;;;8.18;5.22;;;;;;;19.00;100.00;100621.13;5061519;28;20507;-86
2023/08/15 03:28:52;;;;;;;7.95;4.78;;;;;;;18.97;100.00;100616.81;5048972;28;20433;-85
2023/08/15 03:31:22;;;;;;;7.95;4.60;;;;;;;18.93;100.00;100609.94;5031514;28;20052;-86
2023/08/15 03:33:48;;;;;;;9.02;4.80;;;;;;;18.92;100.00;100612.66;5047860;28;20041;-86
2023/08/15 03:36:15;;;;;;;7.45;4.60;;;;;;;18.88;100.00;100611.91;5050564;28;20045;-86
2023/08/15 03:38:42;;;;;;;7.95;5.18;;;;;;;18.84;100.00;100605.84;5044572;28;20041;-86
2023/08/15 03:41:08;;;;;;;9.68;5.20;;;;;;;18.83;100.00;100605.94;5046071;28;20048;-90
2023/08/15 03:43:36;;;;;;;7.82;5.30;;;;;;;18.82;100.00;100599.75;5031940;28;20213;-87
2023/08/15 03:46:05;;;;;;;9.45;4.63;;;;;;;18.79;100.00;100599.91;5032291;28;20098;-87
2023/08/15 03:48:33;;;;;;;5.47;4.93;;;;;;;18.78;100.00;100600.81;5043510;28;20124;-87
2023/08/15 03:51:01;;;;;;;6.10;4.47;;;;;;;18.77;100.00;100603.53;5044570;28;20405;-85
2023/08/15 03:53:28;;;;;;;5.70;4.35;;;;;;;18.76;100.00;100600.03;5042378;28;20042;-85
2023/08/15 03:55:55;;;;;;;7.22;5.88;;;;;;;18.75;100.00;100590.38;5035029;28;20086;-85
2023/08/15 03:58:23;;;;;;;7.57;4.97;;;;;;;18.72;100.00;100589.63;5046173;28;20037;-85
2023/08/15 04:00:50;;;;;;;5.35;4.85;;;;;;;18.71;100.00;100587.91;5059940;28;20238;-86
2023/08/15 04:03:20;;;;;;;6.47;4.55;;;;;;;18.70;100.00;100586.19;5044444;28;20039;-90
2023/08/15 04:05:48;;;;;;;8.25;5.30;;;;;;;18.70;100.00;100586.19;5027205;28;20053;-86
2023/08/15 04:08:16;;;;;;;9.10;5.40;;;;;;;18.68;100.00;100580.94;5048595;28;20049;-85
2023/08/15 04:10:47;;;;;;;5.57;4.72;;;;;;;18.68;100.00;100575.63;5046131;28;20053;-88
2023/08/15 04:13:14;;;;;;;5.10;4.63;;;;;;;18.67;100.00;100579.25;5062807;28;20572;-86
2023/08/15 04:15:42;;;;;;;5.75;4.40;;;;;;;18.68;100.00;100586.25;5042944;28;20044;-89
2023/08/15 04:18:11;;;;;;;7.55;6.13;;;;;;;18.65;100.00;100584.59;5032167;28;20469;-90
2023/08/15 04:20:43;;;;;;;6.50;4.82;;;;;;;18.66;100.00;100591.63;5029437;28;20060;-89
2023/08/15 04:23:11;;;;;;;7.68;5.28;;;;;;;18.67;100.00;100601.31;5048227;28;20936;-87
2023/08/15 04:25:45;;;;;;;7.22;5.05;;;;;;;18.68;100.00;100607.44;5051613;28;20041;-87
2023/08/15 04:28:13;;;;;;;5.30;4.78;;;;;;;18.71;100.00;100611.75;5032300;28;20077;-86
2023/08/15 04:30:40;;;;;;;6.10;5.38;;;;;;;18.71;100.00;100619.72;5036293;28;20837;-91
2023/08/15 04:33:14;;;;;;;7.32;4.70;;;;;;;18.74;100.00;100620.44;5050612;28;20041;-87
2023/08/15 04:35:41;;;;;;;5.88;4.78;;;;;;;18.78;100.00;100621.19;5046469;28;20057;-87
2023/08/15 04:38:08;;;;;;;8.15;4.80;;;;;;;18.83;100.00;100628.00;5049869;28;20108;-86
2023/08/15 04:40:39;;;;;;;7.57;5.00;;;;;;;18.84;100.00;100619.13;5050882;28;20044;-89
2023/08/15 04:43:17;;;;;;;8.85;5.45;;;;;;;18.91;100.00;100627.69;5047249;28;20053;-87
2023/08/15 04:45:45;;;;;;;10.73;5.15;;;;;;;18.94;100.00;100632.00;5048725;28;20061;-86
2023/08/15 04:48:13;;;;;;;6.90;5.63;;;;;;;18.98;100.00;100630.94;5048046;28;20053;-85
2023/08/15 04:50:41;;;;;;;6.53;4.82;;;;;;;19.03;100.00;100625.44;5051019;28;20057;-89
2023/08/15 04:53:08;;;;;;;5.13;4.20;;;;;;;19.08;100.00;100624.28;5048997;28;20037;-87
2023/08/15 04:55:35;;;;;;;6.07;4.68;;;;;;;19.17;100.00;100630.97;5057449;28;20060;-90
2023/08/15 04:58:02;;;;;;;4.88;4.30;;;;;;;19.23;100.00;100628.06;5042851;28;20505;-87
2023/08/15 05:00:28;;;;;;;7.47;4.65;;;;;;;19.36;100.00;100632.78;5035099;28;20104;-87
2023/08/15 05:02:55;;;;;;;6.97;4.55;;;;;;;19.49;100.00;100639.28;5051052;28;20444;-85
2023/08/15 05:05:23;;;;;;;6.05;4.68;;;;;;;19.60;100.00;100649.38;5048034;28;20120;-85
2023/08/15 05:07:50;;;;;;;6.20;4.82;;;;;;;19.70;100.00;100650.69;5052191;28;20041;-86
2023/08/15 05:10:20;;;;;;;6.97;5.13;;;;;;;19.80;100.00;100645.78;5055301;28;20068;-88
2023/08/15 05:12:48;;;;;;;6.22;4.60;;;;;;;19.89;100.00;100644.50;5039068;28;20072;-86
2023/08/15 05:15:17;;;;;;;5.18;3.55;;;;;;;20.00;100.00;100642.22;5067226;28;20049;-85
2023/08/15 05:17:45;;;;;;;8.65;4.28;;;;;;;20.11;100.00;100644.34;5061627;28;20036;-85
2023/08/15 05:20:13;;;;;;;4.40;3.83;;;;;;;20.26;100.00;100643.56;5058695;28;20044;-86
2023/08/15 05:22:39;;;;;;;4.72;3.28;;;;;;;20.37;100.00;100650.16;5053632;28;20049;-88
2023/08/15 05:25:20;;;;;;;6.88;4.63;;;;;;;20.48;100.00;100646.03;5087037;28;20041;-91
2023/08/15 05:27:47;;;;;;;7.55;3.78;;;;;;;20.60;100.00;100641.88;5059926;28;20075;-90
2023/08/15 05:30:14;;;;;;;8.77;3.47;;;;;;;20.65;100.00;100639.00;5075050;28;20049;-90
2023/08/15 05:32:40;;;;;;;3.80;3.50;;;;;;;20.75;100.00;100650.03;5055596;28;20055;-90
2023/08/15 05:35:08;;;;;;;3.53;3.30;;;;;;;20.84;100.00;100646.91;5090599;28;20067;-92
2023/08/15 05:37:34;;;;;;;3.95;3.55;;;;;;;20.90;100.00;100643.91;5055621;28;20408;-87
2023/08/15 05:40:08;;;;;;;4.75;3.13;;;;;;;20.96;100.00;100643.59;5066390;28;20044;-85
2023/08/15 05:42:37;;;;;;;6.35;3.03;;;;;;;21.02;100.00;100637.09;5068052;28;20064;-94
2023/08/15 05:45:04;;;;;;;4.57;3.88;;;;;;;21.04;100.00;100644.97;5059378;28;20433;-85
2023/08/15 05:47:32;;;;;;;5.53;3.90;;;;;;;21.02;100.00;100658.38;5071050;28;20060;-85
2023/08/15 05:50:01;;;;;;;4.35;3.45;;;;;;;20.96;100.00;100658.69;5071887;28;20067;-89
2023/08/15 05:52:28;;;;;;;7.30;3.97;;;;;;;20.91;100.00;100666.94;5070319;28;20040;-93
2023/08/15 05:54:56;;;;;;;5.85;3.63;;;;;;;20.90;100.00;100678.50;5058309;28;20045;-85
2023/08/15 05:57:24;;;;;;;6.85;3.50;;;;;;;20.89;100.00;100682.09;5074212;28;20071;-88
2023/08/15 05:59:51;;;;;;;4.93;3.88;;;;;;;20.90;100.00;100694.47;5066912;28;20087;-90
2023/08/15 06:02:19;;;;;;;6.40;3.15;;;;;;;20.92;100.00;100694.38;5074567;28;20044;-89
2023/08/15 06:04:46;;;;;;;10.00;4.88;;;;;;;20.95;100.00;100694.22;5072607;28;20098;-86
2023/08/15 06:07:14;;;;;;;7.68;4.88;;;;;;;20.95;100.00;100691.56;5070441;28;20092;-94
2023/08/15 06:09:41;;;;;;;5.75;3.58;;;;;;;20.95;100.00;100711.06;5056371;28;20069;-89
2023/08/15 06:12:09;;;;;;;8.55;3.50;;;;;;;20.93;100.00;100701.44;5081091;28;20100;-92
2023/08/15 06:14:42;;;;;;;7.05;3.95;;;;;;;20.91;100.00;100705.97;5071111;28;20032;-91
2023/08/15 06:17:12;;;;;;;9.60;4.50;;;;;;;20.85;100.00;100706.31;5035983;28;20045;-94
2023/08/15 06:19:39;;;;;;;4.90;3.20;;;;;;;20.70;100.00;100711.44;5060598;28;20048;-89
2023/08/15 06:22:11;;;;;;;5.28;3.80;;;;;;;20.51;100.00;100714.16;5068061;28;20065;-94
2023/08/15 06:24:38;;;;;;;4.95;3.40;;;;;;;20.34;100.00;100746.88;5085753;28;20029;-91
2023/08/15 06:27:05;;;;;;;4.97;3.60;;;;;;;20.23;100.00;100771.28;5049605;28;20048;-93
2023/08/15 06:29:31;;;;;;;4.88;4.07;;;;;;;20.13;100.00;100772.69;5055112;28;20377;-84
2023/08/15 06:31:59;;;;;;;5.97;4.18;;;;;;;20.03;100.00;100792.66;5046796;28;20075;-86
2023/08/15 06:34:27;;;;;;;6.22;4.00;;;;;;;19.84;100.00;100790.81;5044367;28;20052;-87
2023/08/15 06:36:54;;;;;;;11.63;5.38;;;;;;;19.69;100.00;100788.84;5081095;28;20053;-88
2023/08/15 06:39:21;;;;;;;6.75;4.35;;;;;;;19.58;100.00;100784.88;5062433;28;20050;-90
2023/08/15 06:41:49;;;;;;;5.15;4.38;;;;;;;19.56;100.00;100791.19;5080597;28;20040;-84
2023/08/15 06:44:16;;;;;;;5.03;4.55;;;;;;;19.47;100.00;100789.78;5055705;28;20067;-87
2023/08/15 06:46:42;;;;;;;6.88;5.88;;;;;;;19.38;100.00;100792.84;5062513;28;20060;-87
2023/08/15 06:49:09;;;;;;;7.15;5.00;;;;;;;19.33;100.00;100811.63;5048658;28;20087;-91
2023/08/15 06:51:35;;;;;;;6.85;5.63;;;;;;;19.31;100.00;100822.31;5062037;28;20068;-88
2023/08/15 06:54:02;;;;;;;6.90;5.43;;;;;;;19.31;100.00;100819.66;5056973;28;20176;-85
2023/08/15 06:56:29;;;;;;;9.35;6.00;;;;;;;19.33;100.00;100801.00;5050505;28;20392;-87
2023/08/15 06:58:55;;;;;;;6.88;5.10;;;;;;;19.37;100.00;100796.44;5031019;28;20048;-89
2023/08/15 07:01:23;;;;;;;6.72;5.57;;;;;;;19.37;100.00;100794.63;5058423;28;20039;-87
2023/08/15 07:03:51;;;;;;;9.18;5.78;;;;;;;19.41;100.00;100790.06;5051117;28;20036;-88
2023/08/15 07:06:20;;;;;;;8.40;5.72;;;;;;;19.44;100.00;100785.47;5049127;28;20056;-85
2023/08/15 07:08:49;;;;;;;7.45;6.57;;;;;;;19.44;100.00;100769.56;5073142;28;20142;-88
2023/08/15 07:11:17;;;;;;;10.18;5.95;;;;;;;19.42;100.00;100744.00;5073427;28;20046;-86
2023/08/15 07:13:44;;;;;;;11.50;5.78;;;;;;;19.40;100.00;100725.50;5047763;28;20105;-90
2023/08/15 07:16:11;;;;;;;6.30;5.22;;;;;;;19.44;100.00;100711.16;5048186;28;20037;-85
2023/08/15 07:18:38;;;;;;;6.75;5.95;;;;;;;19.49;100.00;100727.75;5063343;28;20087;-86
2023/08/15 07:21:05;;;;;;;6.75;5.97;;;;;;;19.53;100.00;100723.16;5063386;28;20060;-88
2023/08/15 07:23:32;;;;;;;6.13;4.72;;;;;;;19.56;100.00;100730.13;5068074;28;20124;-87
2023/08/15 07:25:58;;;;;;;5.47;4.93;;;;;;;19.65;100.00;100724.38;5061356;28;20063;-87
2023/08/15 07:28:28;;;;;;;12.30;5.90;;;;;;;19.73;100.00;100708.94;5054797;28;20139;-86
2023/08/15 07:30:55;;;;;;;4.80;4.38;;;;;;;19.81;100.00;100703.28;5039663;28;20155;-86
2023/08/15 07:33:23;;;;;;;6.55;5.20;;;;;;;19.96;100.00;100707.91;5037644;28;20049;-87
2023/08/15 07:35:49;;;;;;;5.90;5.03;;;;;;;20.10;100.00;100720.56;5051699;28;20041;-85
2023/08/15 07:38:16;;;;;;;7.50;4.57;;;;;;;20.15;100.00;100725.63;5048673;28;20116;-87
2023/08/15 07:40:43;;;;;;;8.27;5.25;;;;;;;20.17;100.00;100713.13;5050866;28;20099;-87
2023/08/15 07:43:10;;;;;;;7.30;5.03;;;;;;;20.19;100.00;100724.53;5051753;28;20045;-84
2023/08/15 07:45:37;;;;;;;5.13;4.60;;;;;;;20.25;100.00;100724.25;5053021;28;20072;-84
2023/08/15 07:48:04;;;;;;;9.32;4.63;;;;;;;20.38;100.00;100727.19;5053215;28;20091;-88
2023/08/15 07:50:31;;;;;;;7.35;5.00;;;;;;;20.47;100.00;100737.34;5068876;28;20059;-86
2023/08/15 07:52:59;;;;;;;8.77;4.57;;;;;;;20.61;100.00;100765.94;5049005;28;20070;-90
2023/08/15 07:55:29;;;;;;;6.43;4.32;;;;;;;20.62;100.00;100770.34;5052862;28;20037;-86
2023/08/15 07:57:55;;;;;;;6.00;3.65;;;;;;;20.78;100.00;100759.81;5048778;28;20049;-88
2023/08/15 08:00:22;;;;;;;6.38;4.35;;;;;;;20.85;100.00;100796.78;5051474;28;20033;-86
2023/08/15 08:02:49;;;;;;;4.80;3.78;;;;;;;20.81;100.00;100794.25;5036439;28;20049;-85
2023/08/15 08:05:17;;;;;;;3.58;3.05;;;;;;;20.98;100.00;100798.72;5032832;28;20041;-85
2023/08/15 08:07:45;;;;;;;7.60;4.13;;;;;;;21.34;100.00;100804.03;5049682;28;20124;-83
2023/08/15 08:10:12;;;;;;;3.67;3.38;;;;;;;21.66;100.00;100797.06;5035618;28;20037;-86
2023/08/15 08:12:39;;;;;;;3.97;3.17;;;;;;;21.96;100.00;100789.22;5033338;28;20049;-88
2023/08/15 08:15:07;;;;;;;3.50;2.97;;;;;;;22.28;100.00;100783.03;5054333;28;20037;-86
2023/08/15 08:17:37;;;;;;;3.70;2.55;;;;;;;22.49;100.00;100782.81;5053545;28;20098;-87
2023/08/15 08:20:08;;;;;;;3.85;2.53;;;;;;;22.68;100.00;100791.47;5046681;28;20071;-86
2023/08/15 08:22:34;;;;;;;3.75;3.30;;;;;;;22.77;100.00;100800.75;5051160;28;20041;-86
2023/08/15 08:25:23;;;;;;;2.15;2.05;;;;;;;22.94;100.00;100803.31;5051909;28;20421;-85
2023/08/15 08:27:51;;;;;;;3.22;2.88;;;;;;;23.02;100.00;100802.00;5051265;28;20053;-86
2023/08/15 08:33:02;;;;;;;3.95;2.00;;;;;;;23.00;100.00;100801.22;5055055;28;20572;-87
2023/08/15 08:35:29;;;;;;;3.92;2.40;;;;;;;23.19;100.00;100815.22;5018981;28;20060;-85
2023/08/15 08:37:56;;;;;;;3.42;1.80;;;;;;;24.26;100.00;100811.41;5044341;28;20048;-85
2023/08/15 08:40:24;;;;;;;1.88;1.65;;;;;;;25.75;96.79;100803.25;5052593;28;20532;-85
2023/08/15 08:42:51;;;;;;;2.25;1.60;;;;;;;26.77;85.81;100800.44;5053545;28;20076;-87
2023/08/15 08:45:19;;;;;;;1.40;1.30;;;;;;;27.46;87.77;100791.63;5047199;28;20052;-87
2023/08/15 08:47:47;;;;;;;2.78;1.30;;;;;;;28.46;82.48;100790.00;5052427;28;20049;-84
2023/08/15 08:50:14;;;;;;;10.07;2.05;;;;;;;29.28;75.70;100789.44;5032640;28;20751;-85
2023/08/15 08:52:48;;;;;;;2.67;1.35;;;;;;;30.22;73.48;100785.75;5032772;28;20056;-83
2023/08/15 08:55:18;;;;;;;1.27;1.10;;;;;;;30.61;69.39;100803.88;5045201;28;20055;-85
2023/08/15 08:57:49;;;;;;;1.05;0.95;;;;;;;30.63;67.74;100799.19;5052142;28;20048;-84
2023/08/15 09:00:19;;;;;;;2.85;0.95;;;;;;;30.64;59.52;100799.06;5061690;28;20067;-84
2023/08/15 09:02:47;;;;;;;0.95;0.95;;;;;;;30.35;61.79;100801.66;5047238;28;20048;-86
2023/08/15 09:05:16;;;;;;;3.03;0.80;;;;;;;30.25;62.31;100807.06;5051068;28;20044;-83
2023/08/15 09:07:43;;;;;;;1.48;0.75;;;;;;;30.02;61.06;100814.53;5033613;28;20056;-85
2023/08/15 09:10:12;;;;;;;0.75;0.75;;;;;;;29.30;64.69;100810.88;5052267;28;20036;-83
2023/08/15 09:12:42;;;;;;;0.90;0.90;;;;;;;29.38;66.06;100814.59;5048988;28;20045;-83
2023/08/15 09:15:11;;;;;;;3.15;1.23;;;;;;;30.73;61.32;100812.69;5037005;28;20045;-83
2023/08/15 09:17:42;;;;;;;1.02;1.02;;;;;;;31.32;55.23;100810.84;5057771;28;20413;-88
2023/08/15 09:20:18;;;;;;;1.80;1.10;;;;;;;32.18;53.89;100818.00;5071788;28;20047;-87
2023/08/15 09:22:46;;;;;;;0.60;0.60;;;;;;;33.07;51.53;100819.06;5047152;28;20045;-84
2023/08/15 09:25:18;;;;;;;1.67;0.80;;;;;;;33.57;50.15;100812.16;5043344;28;20155;-85
2023/08/15 09:27:45;;;;;;;1.52;1.00;;;;;;;33.79;48.95;100809.88;5052745;28;20045;-83
2023/08/15 09:30:18;;;;;;;1.58;1.48;;;;;;;33.47;47.66;100808.69;5029223;28;20440;-88
2023/08/15 09:32:46;;;;;;;1.55;1.30;;;;;;;32.61;49.19;100808.28;5068836;28;20041;-83
2023/08/15 09:35:15;;;;;;;0.88;0.88;;;;;;;32.01;51.59;100819.63;5050950;28;20053;-82
2023/08/15 09:37:50;;;;;;;0.80;0.80;;;;;;;31.53;53.38;100810.66;5046693;28;20082;-84
2023/08/15 09:40:25;;;;;;;1.20;1.10;;;;;;;31.57;52.77;100813.91;5052846;28;20132;-83
2023/08/15 09:42:54;;;;;;;;;;;;;;;32.12;52.18;100816.72;5021302;28;20052;-84
2023/08/15 09:45:27;;;;;;;1.50;1.40;;;;;;;32.77;47.84;100809.47;5057870;28;20003;-84
2023/08/15 09:48:01;;;;;;;1.27;1.15;;;;;;;33.35;48.35;100810.81;5055250;28;20045;-84
2023/08/15 09:50:28;;;;;;;1.42;1.15;;;;;;;33.23;46.69;100812.06;5027090;28;20726;-85
2023/08/15 09:52:55;;;;;;;1.05;0.98;;;;;;;33.64;47.28;100817.78;5049082;28;20128;-85
2023/08/15 09:55:22;;;;;;;1.38;1.05;;;;;;;33.73;46.97;100815.97;5046377;28;20088;-85
2023/08/15 09:57:52;;;;;;;1.95;1.48;;;;;;;34.23;44.49;100812.44;5053076;28;20493;-84
2023/08/15 10:00:23;;;;;;;1.23;1.00;;;;;;;33.73;45.15;100813.25;5041298;28;20045;-84
2023/08/15 10:03:00;;;;;;;3.00;1.10;;;;;;;33.97;43.35;100813.41;5043365;28;20048;-84
2023/08/15 10:05:41;;;;;;;1.23;1.05;;;;;;;34.26;41.74;100805.84;5027285;28;20496;-84
2023/08/15 10:08:12;;;;;;;1.45;1.35;;;;;;;33.12;44.21;100810.47;5048336;28;20128;-83
2023/08/15 10:10:40;;;;;;;2.08;1.40;;;;;;;33.29;44.38;100816.88;5049666;28;20041;-83
2023/08/15 10:13:09;;;;;;;1.30;1.20;;;;;;;33.92;43.62;100820.31;5035550;28;20037;-85
2023/08/15 10:15:38;;;;;;;1.45;1.10;;;;;;;34.40;42.68;100815.25;5046567;28;20451;-88
2023/08/15 10:18:07;;;;;;;2.17;1.30;;;;;;;35.07;42.10;100815.16;5037112;28;20480;-84
2023/08/15 10:20:38;;;;;;;2.72;1.48;;;;;;;34.95;40.92;100821.97;5044807;28;20033;-83
2023/08/15 10:23:34;;;;;;;1.75;1.25;;;;;;;34.79;41.02;100823.63;5047622;28;20108;-85
2023/08/15 10:26:07;;;;;;;1.17;1.17;;;;;;;35.16;41.49;100831.47;5044819;28;20048;-83
2023/08/15 10:28:36;;;;;;;;;;;;;;;35.80;38.14;100833.41;5058245;28;20047;-85
2023/08/15 10:31:04;;;;;;;1.55;1.30;;;;;;;36.01;39.29;100843.75;5051397;28;19928;-84
2023/08/15 10:33:33;;;;;;;3.03;1.30;;;;;;;35.50;39.71;100839.47;5039090;28;20064;-84
2023/08/15 10:36:02;;;;;;;2.33;1.50;;;;;;;33.99;42.98;100848.53;5060501;28;20045;-89
2023/08/15 10:38:43;;;;;;;2.17;1.60;;;;;;;34.02;43.00;100840.06;5057149;28;20067;-82
2023/08/15 10:41:18;;;;;;;2.67;1.20;;;;;;;32.52;45.19;100840.88;5050056;28;20041;-83
2023/08/15 10:43:49;;;;;;;1.40;1.27;;;;;;;30.80;51.42;100847.13;5059482;28;20511;-84
2023/08/15 10:46:19;;;;;;;1.40;1.35;;;;;;;29.77;54.37;100850.91;5051978;28;20060;-84
2023/08/15 10:48:55;;;;;;;2.15;1.88;;;;;;;28.93;57.58;100844.47;5052295;28;20041;-83
2023/08/15 10:51:31;;;;;;;1.52;1.42;;;;;;;28.33;59.02;100850.25;5055584;28;20036;-84
2023/08/15 10:54:12;;;;;;;1.80;1.70;;;;;;;27.55;62.42;100846.53;5031770;28;20037;-83
2023/08/15 10:56:41;;;;;;;3.13;1.85;;;;;;;27.14;65.07;100859.44;5024120;28;20053;-84
2023/08/15 10:59:14;;;;;;;2.20;2.10;;;;;;;27.18;65.30;100857.38;5038504;28;20034;-82
2023/08/15 11:01:43;;;;;;;2.22;2.00;;;;;;;27.65;63.47;100857.41;5030213;28;20053;-85
2023/08/15 11:04:15;;;;;;;2.63;2.00;;;;;;;27.79;63.21;100859.03;5047294;28;20104;-84
2023/08/15 11:06:52;;;;;;;4.78;2.25;;;;;;;27.41;65.26;100866.41;5032278;28;20053;-83
2023/08/15 11:09:19;;;;;;;2.97;2.20;;;;;;;27.17;66.38;100871.78;5037234;28;20091;-86
2023/08/15 11:11:46;;;;;;;2.55;2.45;;;;;;;26.98;66.93;100875.88;5052262;28;20054;-85
2023/08/15 11:14:19;;;;;;;3.03;2.63;;;;;;;26.64;68.02;100875.66;5052938;28;20128;-84
2023/08/15 11:16:50;;;;;;;2.60;2.50;;;;;;;26.40;69.15;100865.75;5038228;28;20042;-83
2023/08/15 11:19:18;;;;;;;2.33;2.22;;;;;;;26.37;70.28;100870.47;5058448;28;20037;-91
2023/08/15 11:21:45;;;;;;;5.38;2.28;;;;;;;26.22;70.91;100873.28;5069792;28;20029;-90
2023/08/15 11:24:13;;;;;;;2.70;2.50;;;;;;;26.41;70.65;100871.94;5062026;28;20043;-86
2023/08/15 11:26:41;;;;;;;4.15;2.40;;;;;;;26.69;70.25;100878.00;5059462;28;20044;-86
2023/08/15 11:29:12;;;;;;;3.00;2.53;;;;;;;26.79;69.84;100867.47;5043085;28;20052;-85
2023/08/15 11:31:39;;;;;;;2.72;2.55;;;;;;;26.69;69.96;100878.00;5051690;28;20051;-83